sensor_id;sensor_type;location;lat;lon;timestamp;temperature;humidity
11423;DHT22;5768;51.476;7.210;2023-02-15T00:00:42;7.50;14.70
11423;DHT22;5768;51.476;7.210;2023-02-15T00:05:45;7.40;14.80
11423;DHT22;5768;51.476;7.210;2023-02-15T00:10:47;7.30;14.80
11423;DHT22;5768;51.476;7.210;2023-02-15T00:15:49;7.20;14.80
11423;DHT22;5768;51.476;7.210;2023-02-15T00:20:53;7.10;14.90
11423;DHT22;5768;51.476;7.210;2023-02-15T00:26:03;7.10;15.00
11423;DHT22;5768;51.476;7.210;2023-02-15T00:31:09;7.10;15.10
11423;DHT22;5768;51.476;7.210;2023-02-15T00:36:13;7.10;15.10
11423;DHT22;5768;51.476;7.210;2023-02-15T00:41:16;6.90;15.10
11423;DHT22;5768;51.476;7.210;2023-02-15T00:46:18;6.80;15.20
11423;DHT22;5768;51.476;7.210;2023-02-15T00:51:21;6.70;15.20
11423;DHT22;5768;51.476;7.210;2023-02-15T00:56:23;6.80;15.30
11423;DHT22;5768;51.476;7.210;2023-02-15T01:01:25;6.50;15.30
11423;DHT22;5768;51.476;7.210;2023-02-15T01:06:29;6.20;15.30
11423;DHT22;5768;51.476;7.210;2023-02-15T01:11:31;6.50;15.40
11423;DHT22;5768;51.476;7.210;2023-02-15T01:16:34;6.50;15.60
11423;DHT22;5768;51.476;7.210;2023-02-15T01:21:37;6.30;15.40
11423;DHT22;5768;51.476;7.210;2023-02-15T01:26:41;6.40;15.40
11423;DHT22;5768;51.476;7.210;2023-02-15T01:31:43;6.40;15.40
11423;DHT22;5768;51.476;7.210;2023-02-15T01:36:46;6.30;15.30
11423;DHT22;5768;51.476;7.210;2023-02-15T01:41:49;6.40;15.40
11423;DHT22;5768;51.476;7.210;2023-02-15T01:46:53;6.20;15.30
11423;DHT22;5768;51.476;7.210;2023-02-15T01:51:57;6.10;15.50
11423;DHT22;5768;51.476;7.210;2023-02-15T01:57:02;6.10;15.60
11423;DHT22;5768;51.476;7.210;2023-02-15T02:02:08;6.10;15.60
11423;DHT22;5768;51.476;7.210;2023-02-15T02:07:17;6.00;15.50
11423;DHT22;5768;51.476;7.210;2023-02-15T02:12:23;6.10;15.50
11423;DHT22;5768;51.476;7.210;2023-02-15T02:17:34;5.90;15.70
11423;DHT22;5768;51.476;7.210;2023-02-15T02:23:36;5.90;15.60
11423;DHT22;5768;51.476;7.210;2023-02-15T02:29:10;5.80;15.50
11423;DHT22;5768;51.476;7.210;2023-02-15T02:34:48;5.70;15.60
11423;DHT22;5768;51.476;7.210;2023-02-15T02:40:03;5.60;15.60
11423;DHT22;5768;51.476;7.210;2023-02-15T02:45:18;5.50;15.80
11423;DHT22;5768;51.476;7.210;2023-02-15T02:50:27;5.50;15.70
11423;DHT22;5768;51.476;7.210;2023-02-15T02:55:34;5.50;15.80
11423;DHT22;5768;51.476;7.210;2023-02-15T03:00:50;5.40;15.80
11423;DHT22;5768;51.476;7.210;2023-02-15T03:05:58;5.50;15.80
11423;DHT22;5768;51.476;7.210;2023-02-15T03:11:04;5.40;15.90
11423;DHT22;5768;51.476;7.210;2023-02-15T03:16:09;5.50;15.90
11423;DHT22;5768;51.476;7.210;2023-02-15T03:21:34;5.50;16.00
11423;DHT22;5768;51.476;7.210;2023-02-15T03:26:42;5.50;15.90
11423;DHT22;5768;51.476;7.210;2023-02-15T03:31:51;5.30;15.90
11423;DHT22;5768;51.476;7.210;2023-02-15T03:37:04;5.50;16.00
11423;DHT22;5768;51.476;7.210;2023-02-15T03:42:14;5.40;16.00
11423;DHT22;5768;51.476;7.210;2023-02-15T03:47:22;5.40;15.90
11423;DHT22;5768;51.476;7.210;2023-02-15T03:52:29;5.30;15.90
11423;DHT22;5768;51.476;7.210;2023-02-15T03:57:35;5.30;16.00
11423;DHT22;5768;51.476;7.210;2023-02-15T04:03:09;5.20;15.90
11423;DHT22;5768;51.476;7.210;2023-02-15T04:08:20;5.20;15.90
11423;DHT22;5768;51.476;7.210;2023-02-15T04:13:42;5.10;15.90
11423;DHT22;5768;51.476;7.210;2023-02-15T04:18:44;5.10;15.90
11423;DHT22;5768;51.476;7.210;2023-02-15T04:24:06;5.00;16.10
11423;DHT22;5768;51.476;7.210;2023-02-15T04:29:27;5.00;16.10
11423;DHT22;5768;51.476;7.210;2023-02-15T04:34:30;5.00;16.20
11423;DHT22;5768;51.476;7.210;2023-02-15T04:39:33;4.80;16.10
11423;DHT22;5768;51.476;7.210;2023-02-15T04:44:35;4.80;16.20
11423;DHT22;5768;51.476;7.210;2023-02-15T04:49:38;4.80;16.10
11423;DHT22;5768;51.476;7.210;2023-02-15T04:54:41;4.90;16.30
11423;DHT22;5768;51.476;7.210;2023-02-15T04:59:44;4.90;16.20
11423;DHT22;5768;51.476;7.210;2023-02-15T05:04:46;4.80;16.30
11423;DHT22;5768;51.476;7.210;2023-02-15T05:09:49;4.70;16.30
11423;DHT22;5768;51.476;7.210;2023-02-15T05:14:52;4.80;16.30
11423;DHT22;5768;51.476;7.210;2023-02-15T05:19:54;4.70;16.30
11423;DHT22;5768;51.476;7.210;2023-02-15T05:24:57;4.70;16.40
11423;DHT22;5768;51.476;7.210;2023-02-15T05:30:18;4.80;16.50
11423;DHT22;5768;51.476;7.210;2023-02-15T05:35:20;4.90;16.60
11423;DHT22;5768;51.476;7.210;2023-02-15T05:40:23;4.90;16.60
11423;DHT22;5768;51.476;7.210;2023-02-15T05:45:26;4.90;16.60
11423;DHT22;5768;51.476;7.210;2023-02-15T05:50:28;4.90;16.60
11423;DHT22;5768;51.476;7.210;2023-02-15T05:55:31;4.90;16.50
11423;DHT22;5768;51.476;7.210;2023-02-15T06:00:34;4.80;16.50
11423;DHT22;5768;51.476;7.210;2023-02-15T06:05:36;4.90;16.80
11423;DHT22;5768;51.476;7.210;2023-02-15T06:10:40;4.90;16.70
11423;DHT22;5768;51.476;7.210;2023-02-15T06:15:42;4.80;16.60
11423;DHT22;5768;51.476;7.210;2023-02-15T06:20:45;4.70;16.70
11423;DHT22;5768;51.476;7.210;2023-02-15T06:25:49;5.00;16.60
11423;DHT22;5768;51.476;7.210;2023-02-15T06:30:51;4.80;16.60
11423;DHT22;5768;51.476;7.210;2023-02-15T06:35:54;4.80;16.60
11423;DHT22;5768;51.476;7.210;2023-02-15T06:40:57;4.70;16.60
11423;DHT22;5768;51.476;7.210;2023-02-15T06:46:00;4.60;16.70
11423;DHT22;5768;51.476;7.210;2023-02-15T06:51:02;4.70;16.80
11423;DHT22;5768;51.476;7.210;2023-02-15T06:56:07;4.80;16.70
11423;DHT22;5768;51.476;7.210;2023-02-15T07:01:11;4.80;16.60
11423;DHT22;5768;51.476;7.210;2023-02-15T07:06:13;4.80;16.50
11423;DHT22;5768;51.476;7.210;2023-02-15T07:11:16;4.90;16.50
11423;DHT22;5768;51.476;7.210;2023-02-15T07:16:37;5.00;16.40
11423;DHT22;5768;51.476;7.210;2023-02-15T07:21:40;5.10;16.40
11423;DHT22;5768;51.476;7.210;2023-02-15T07:26:43;5.30;16.40
11423;DHT22;5768;51.476;7.210;2023-02-15T07:31:45;5.20;16.40
11423;DHT22;5768;51.476;7.210;2023-02-15T07:36:47;5.40;16.40
11423;DHT22;5768;51.476;7.210;2023-02-15T07:41:53;5.40;16.20
11423;DHT22;5768;51.476;7.210;2023-02-15T07:46:55;5.50;16.10
11423;DHT22;5768;51.476;7.210;2023-02-15T07:51:58;5.60;16.10
11423;DHT22;5768;51.476;7.210;2023-02-15T07:57:03;5.80;15.80
11423;DHT22;5768;51.476;7.210;2023-02-15T08:02:08;6.00;15.80
11423;DHT22;5768;51.476;7.210;2023-02-15T08:07:11;6.10;15.90
11423;DHT22;5768;51.476;7.210;2023-02-15T08:12:17;6.30;15.80
11423;DHT22;5768;51.476;7.210;2023-02-15T08:17:20;6.60;15.70
11423;DHT22;5768;51.476;7.210;2023-02-15T08:22:22;6.70;15.50
11423;DHT22;5768;51.476;7.210;2023-02-15T08:27:26;6.90;15.50
11423;DHT22;5768;51.476;7.210;2023-02-15T08:32:28;7.20;15.30
11423;DHT22;5768;51.476;7.210;2023-02-15T08:37:30;7.40;15.10
11423;DHT22;5768;51.476;7.210;2023-02-15T08:42:34;7.60;15.00
11423;DHT22;5768;51.476;7.210;2023-02-15T08:47:36;7.80;14.90
11423;DHT22;5768;51.476;7.210;2023-02-15T08:52:38;8.10;14.70
11423;DHT22;5768;51.476;7.210;2023-02-15T08:57:41;8.40;14.50
11423;DHT22;5768;51.476;7.210;2023-02-15T09:02:45;8.70;14.40
11423;DHT22;5768;51.476;7.210;2023-02-15T09:07:48;9.00;14.20
11423;DHT22;5768;51.476;7.210;2023-02-15T09:12:52;9.20;13.90
11423;DHT22;5768;51.476;7.210;2023-02-15T09:17:54;9.50;13.80
11423;DHT22;5768;51.476;7.210;2023-02-15T09:22:56;9.70;13.60
11423;DHT22;5768;51.476;7.210;2023-02-15T09:27:59;9.90;13.30
11423;DHT22;5768;51.476;7.210;2023-02-15T09:33:01;10.20;13.10
11423;DHT22;5768;51.476;7.210;2023-02-15T09:38:03;10.30;13.00
11423;DHT22;5768;51.476;7.210;2023-02-15T09:43:20;10.60;12.90
11423;DHT22;5768;51.476;7.210;2023-02-15T09:48:39;10.80;12.90
11423;DHT22;5768;51.476;7.210;2023-02-15T09:54:00;10.80;12.40
11423;DHT22;5768;51.476;7.210;2023-02-15T09:59:20;10.80;12.40
11423;DHT22;5768;51.476;7.210;2023-02-15T10:04:45;11.00;12.60
11423;DHT22;5768;51.476;7.210;2023-02-15T10:10:08;11.00;12.60
11423;DHT22;5768;51.476;7.210;2023-02-15T10:15:33;11.10;12.60
11423;DHT22;5768;51.476;7.210;2023-02-15T10:20:52;11.40;12.30
11423;DHT22;5768;51.476;7.210;2023-02-15T10:26:07;11.60;12.20
11423;DHT22;5768;51.476;7.210;2023-02-15T10:31:25;11.70;12.00
11423;DHT22;5768;51.476;7.210;2023-02-15T10:36:36;12.00;11.90
11423;DHT22;5768;51.476;7.210;2023-02-15T10:42:05;12.30;11.80
11423;DHT22;5768;51.476;7.210;2023-02-15T10:47:28;12.50;11.50
11423;DHT22;5768;51.476;7.210;2023-02-15T10:52:46;12.70;11.50
11423;DHT22;5768;51.476;7.210;2023-02-15T10:58:09;12.80;11.40
11423;DHT22;5768;51.476;7.210;2023-02-15T11:03:33;13.00;11.30
11423;DHT22;5768;51.476;7.210;2023-02-15T11:08:46;13.00;11.20
11423;DHT22;5768;51.476;7.210;2023-02-15T11:13:56;13.30;11.20
11423;DHT22;5768;51.476;7.210;2023-02-15T11:19:08;13.30;11.10
11423;DHT22;5768;51.476;7.210;2023-02-15T11:24:20;13.70;11.00
11423;DHT22;5768;51.476;7.210;2023-02-15T11:29:26;13.90;10.90
11423;DHT22;5768;51.476;7.210;2023-02-15T11:34:37;14.30;10.70
11423;DHT22;5768;51.476;7.210;2023-02-15T11:39:46;14.40;10.70
11423;DHT22;5768;51.476;7.210;2023-02-15T11:44:58;14.60;10.40
11423;DHT22;5768;51.476;7.210;2023-02-15T11:50:10;14.70;10.30
11423;DHT22;5768;51.476;7.210;2023-02-15T11:55:19;14.80;10.30
11423;DHT22;5768;51.476;7.210;2023-02-15T12:00:31;15.10;10.20
11423;DHT22;5768;51.476;7.210;2023-02-15T12:05:40;14.90;10.00
11423;DHT22;5768;51.476;7.210;2023-02-15T12:10:57;15.50;10.00
11423;DHT22;5768;51.476;7.210;2023-02-15T12:16:06;15.40;9.80
11423;DHT22;5768;51.476;7.210;2023-02-15T12:21:25;15.90;9.80
11423;DHT22;5768;51.476;7.210;2023-02-15T12:26:31;15.80;9.60
11423;DHT22;5768;51.476;7.210;2023-02-15T12:31:39;16.00;9.70
11423;DHT22;5768;51.476;7.210;2023-02-15T12:36:47;16.40;9.50
11423;DHT22;5768;51.476;7.210;2023-02-15T12:42:01;16.40;9.50
11423;DHT22;5768;51.476;7.210;2023-02-15T12:47:16;16.20;9.60
11423;DHT22;5768;51.476;7.210;2023-02-15T12:52:25;17.00;9.60
11423;DHT22;5768;51.476;7.210;2023-02-15T12:57:29;17.60;9.30
11423;DHT22;5768;51.476;7.210;2023-02-15T13:02:40;17.70;9.20
11423;DHT22;5768;51.476;7.210;2023-02-15T13:07:49;17.80;9.20
11423;DHT22;5768;51.476;7.210;2023-02-15T13:12:53;18.00;9.10
11423;DHT22;5768;51.476;7.210;2023-02-15T13:17:58;18.60;9.10
11423;DHT22;5768;51.476;7.210;2023-02-15T13:23:21;19.00;9.00
11423;DHT22;5768;51.476;7.210;2023-02-15T13:28:41;19.60;8.80
11423;DHT22;5768;51.476;7.210;2023-02-15T13:33:49;20.00;8.60
11423;DHT22;5768;51.476;7.210;2023-02-15T13:39:04;20.30;8.50
11423;DHT22;5768;51.476;7.210;2023-02-15T13:44:29;20.40;8.50
11423;DHT22;5768;51.476;7.210;2023-02-15T13:50:00;20.80;8.20
11423;DHT22;5768;51.476;7.210;2023-02-15T13:55:36;21.80;8.00
11423;DHT22;5768;51.476;7.210;2023-02-15T14:00:47;22.60;7.70
11423;DHT22;5768;51.476;7.210;2023-02-15T14:06:02;22.90;7.70
11423;DHT22;5768;51.476;7.210;2023-02-15T14:11:20;23.40;7.50
11423;DHT22;5768;51.476;7.210;2023-02-15T14:16:37;23.70;7.40
11423;DHT22;5768;51.476;7.210;2023-02-15T14:21:50;24.30;7.30
11423;DHT22;5768;51.476;7.210;2023-02-15T14:27:07;25.20;7.20
11423;DHT22;5768;51.476;7.210;2023-02-15T14:32:26;25.50;6.80
11423;DHT22;5768;51.476;7.210;2023-02-15T14:37:45;26.30;6.80
11423;DHT22;5768;51.476;7.210;2023-02-15T14:42:58;27.10;6.60
11423;DHT22;5768;51.476;7.210;2023-02-15T14:48:12;25.40;6.70
11423;DHT22;5768;51.476;7.210;2023-02-15T14:53:37;24.90;6.70
11423;DHT22;5768;51.476;7.210;2023-02-15T14:58:55;23.40;6.80
11423;DHT22;5768;51.476;7.210;2023-02-15T15:04:02;23.30;7.00
11423;DHT22;5768;51.476;7.210;2023-02-15T15:09:13;23.20;7.00
11423;DHT22;5768;51.476;7.210;2023-02-15T15:14:40;22.30;7.10
11423;DHT22;5768;51.476;7.210;2023-02-15T15:20:06;21.20;7.20
11423;DHT22;5768;51.476;7.210;2023-02-15T15:25:48;21.30;7.50
11423;DHT22;5768;51.476;7.210;2023-02-15T15:30:54;21.30;7.60
11423;DHT22;5768;51.476;7.210;2023-02-15T15:36:22;21.10;7.60
11423;DHT22;5768;51.476;7.210;2023-02-15T15:41:53;20.30;7.80
11423;DHT22;5768;51.476;7.210;2023-02-15T15:47:20;20.10;7.90
11423;DHT22;5768;51.476;7.210;2023-02-15T15:52:50;19.80;8.00
11423;DHT22;5768;51.476;7.210;2023-02-15T15:57:55;19.40;8.20
11423;DHT22;5768;51.476;7.210;2023-02-15T16:03:02;19.20;8.10
11423;DHT22;5768;51.476;7.210;2023-02-15T16:08:07;18.40;8.20
11423;DHT22;5768;51.476;7.210;2023-02-15T16:13:14;18.10;8.50
11423;DHT22;5768;51.476;7.210;2023-02-15T16:18:21;17.70;8.50
11423;DHT22;5768;51.476;7.210;2023-02-15T16:29:14;17.10;8.80
11423;DHT22;5768;51.476;7.210;2023-02-15T16:34:19;16.70;8.80
11423;DHT22;5768;51.476;7.210;2023-02-15T16:39:21;16.30;8.90
11423;DHT22;5768;51.476;7.210;2023-02-15T16:44:23;16.00;9.10
11423;DHT22;5768;51.476;7.210;2023-02-15T16:49:28;15.70;9.20
11423;DHT22;5768;51.476;7.210;2023-02-15T16:54:34;15.40;9.30
11423;DHT22;5768;51.476;7.210;2023-02-15T16:59:40;15.20;9.30
11423;DHT22;5768;51.476;7.210;2023-02-15T17:05:03;15.10;9.40
11423;DHT22;5768;51.476;7.210;2023-02-15T17:10:41;14.70;9.50
11423;DHT22;5768;51.476;7.210;2023-02-15T17:16:20;14.50;9.50
11423;DHT22;5768;51.476;7.210;2023-02-15T17:21:32;14.40;9.60
11423;DHT22;5768;51.476;7.210;2023-02-15T17:26:40;14.20;9.70
11423;DHT22;5768;51.476;7.210;2023-02-15T17:31:47;14.10;9.80
11423;DHT22;5768;51.476;7.210;2023-02-15T17:37:00;14.00;9.90
11423;DHT22;5768;51.476;7.210;2023-02-15T17:42:03;13.80;10.10
11423;DHT22;5768;51.476;7.210;2023-02-15T17:47:05;13.60;10.20
11423;DHT22;5768;51.476;7.210;2023-02-15T17:52:11;13.50;10.20
11423;DHT22;5768;51.476;7.210;2023-02-15T17:57:21;13.40;10.20
11423;DHT22;5768;51.476;7.210;2023-02-15T18:02:23;13.20;10.30
11423;DHT22;5768;51.476;7.210;2023-02-15T18:07:44;12.90;10.40
11423;DHT22;5768;51.476;7.210;2023-02-15T18:13:04;12.80;10.50
11423;DHT22;5768;51.476;7.210;2023-02-15T18:18:08;12.80;10.50
11423;DHT22;5768;51.476;7.210;2023-02-15T18:23:15;12.90;10.50
11423;DHT22;5768;51.476;7.210;2023-02-15T18:28:17;12.70;10.50
11423;DHT22;5768;51.476;7.210;2023-02-15T18:33:28;12.80;10.60
11423;DHT22;5768;51.476;7.210;2023-02-15T18:38:36;12.60;10.60
11423;DHT22;5768;51.476;7.210;2023-02-15T18:43:42;12.60;10.60
11423;DHT22;5768;51.476;7.210;2023-02-15T18:48:47;12.50;10.70
11423;DHT22;5768;51.476;7.210;2023-02-15T18:53:51;12.50;10.70
11423;DHT22;5768;51.476;7.210;2023-02-15T18:58:56;12.40;10.80
11423;DHT22;5768;51.476;7.210;2023-02-15T19:03:59;12.20;10.80
11423;DHT22;5768;51.476;7.210;2023-02-15T19:09:03;12.20;10.90
11423;DHT22;5768;51.476;7.210;2023-02-15T19:14:05;12.00;10.90
11423;DHT22;5768;51.476;7.210;2023-02-15T19:19:23;11.80;11.00
11423;DHT22;5768;51.476;7.210;2023-02-15T19:24:38;11.70;11.10
11423;DHT22;5768;51.476;7.210;2023-02-15T19:29:44;11.60;11.20
11423;DHT22;5768;51.476;7.210;2023-02-15T19:34:46;11.50;11.30
11423;DHT22;5768;51.476;7.210;2023-02-15T19:39:49;11.40;11.30
11423;DHT22;5768;51.476;7.210;2023-02-15T19:44:52;11.30;11.40
11423;DHT22;5768;51.476;7.210;2023-02-15T19:49:54;11.20;11.40
11423;DHT22;5768;51.476;7.210;2023-02-15T19:55:04;11.00;11.60
11423;DHT22;5768;51.476;7.210;2023-02-15T20:00:15;10.90;11.70
11423;DHT22;5768;51.476;7.210;2023-02-15T20:05:19;10.70;11.70
11423;DHT22;5768;51.476;7.210;2023-02-15T20:10:27;10.70;11.80
11423;DHT22;5768;51.476;7.210;2023-02-15T20:15:32;10.60;11.90
11423;DHT22;5768;51.476;7.210;2023-02-15T20:20:39;10.50;12.00
11423;DHT22;5768;51.476;7.210;2023-02-15T20:25:45;10.50;12.10
11423;DHT22;5768;51.476;7.210;2023-02-15T20:30:47;10.50;12.20
11423;DHT22;5768;51.476;7.210;2023-02-15T20:35:50;10.30;12.20
11423;DHT22;5768;51.476;7.210;2023-02-15T20:40:55;10.30;12.30
11423;DHT22;5768;51.476;7.210;2023-02-15T20:46:17;10.20;12.40
11423;DHT22;5768;51.476;7.210;2023-02-15T20:51:20;10.10;12.50
11423;DHT22;5768;51.476;7.210;2023-02-15T20:56:24;10.20;12.50
11423;DHT22;5768;51.476;7.210;2023-02-15T21:01:26;10.10;12.60
11423;DHT22;5768;51.476;7.210;2023-02-15T21:06:28;10.20;12.60
11423;DHT22;5768;51.476;7.210;2023-02-15T21:11:32;10.10;12.60
11423;DHT22;5768;51.476;7.210;2023-02-15T21:16:34;10.10;12.60
11423;DHT22;5768;51.476;7.210;2023-02-15T21:21:36;10.00;12.70
11423;DHT22;5768;51.476;7.210;2023-02-15T21:26:41;10.10;12.70
11423;DHT22;5768;51.476;7.210;2023-02-15T21:31:45;10.00;12.80
11423;DHT22;5768;51.476;7.210;2023-02-15T21:36:48;9.90;12.80
11423;DHT22;5768;51.476;7.210;2023-02-15T21:41:54;9.90;12.90
11423;DHT22;5768;51.476;7.210;2023-02-15T21:47:18;9.90;12.90
11423;DHT22;5768;51.476;7.210;2023-02-15T21:52:38;9.80;12.90
11423;DHT22;5768;51.476;7.210;2023-02-15T21:57:42;9.80;13.00
11423;DHT22;5768;51.476;7.210;2023-02-15T22:02:46;9.60;13.10
11423;DHT22;5768;51.476;7.210;2023-02-15T22:07:50;9.50;13.10
11423;DHT22;5768;51.476;7.210;2023-02-15T22:12:54;9.30;13.20
11423;DHT22;5768;51.476;7.210;2023-02-15T22:17:56;9.30;13.30
11423;DHT22;5768;51.476;7.210;2023-02-15T22:22:58;9.30;13.30
11423;DHT22;5768;51.476;7.210;2023-02-15T22:28:02;9.20;13.40
11423;DHT22;5768;51.476;7.210;2023-02-15T22:33:05;9.30;13.50
11423;DHT22;5768;51.476;7.210;2023-02-15T22:38:15;9.30;13.50
11423;DHT22;5768;51.476;7.210;2023-02-15T22:43:29;9.30;13.50
11423;DHT22;5768;51.476;7.210;2023-02-15T22:48:36;9.20;13.50
11423;DHT22;5768;51.476;7.210;2023-02-15T22:53:38;9.20;13.60
11423;DHT22;5768;51.476;7.210;2023-02-15T22:58:42;9.10;13.70
11423;DHT22;5768;51.476;7.210;2023-02-15T23:03:44;9.10;13.70
11423;DHT22;5768;51.476;7.210;2023-02-15T23:08:46;9.10;13.70
11423;DHT22;5768;51.476;7.210;2023-02-15T23:13:50;9.10;13.70
11423;DHT22;5768;51.476;7.210;2023-02-15T23:18:52;9.20;13.70
11423;DHT22;5768;51.476;7.210;2023-02-15T23:23:56;9.10;13.70
11423;DHT22;5768;51.476;7.210;2023-02-15T23:29:07;9.00;13.70
11423;DHT22;5768;51.476;7.210;2023-02-15T23:34:26;8.90;13.80
11423;DHT22;5768;51.476;7.210;2023-02-15T23:39:30;8.90;13.80
11423;DHT22;5768;51.476;7.210;2023-02-15T23:44:51;9.00;13.80
11423;DHT22;5768;51.476;7.210;2023-02-15T23:49:53;8.90;13.80
11423;DHT22;5768;51.476;7.210;2023-02-15T23:54:55;8.90;13.80
11423;DHT22;5768;51.476;7.210;2023-02-15T23:59:58;9.00;13.80
